Latest Coastal Weather Observations for Cape Grim

IDT60701

Issued at 9:05 am EST Thursday 28 August 2014 (issued every 10 minutes, with the page automatically refreshed every 10 minutes)

About coastal observations | Map of coastal stations | Coastal observations for TAS | Marine services | Other Formats
Station Details ID: 091331 Name: CAPE GRIM Lat: -40.68 Lon: 144.69 Height: 86.0 m
Data from the previous 72 hours. | See also: Recent months for locations in Tasmania
Date/Time
EST
Temp

°C
Wind Pressure Rain
since 9am
mm
Weather Cloud Vis
km
Sea
Height
m
Swell
Dir
 
Speed
knots
Gust
knots
hPa Trend Height
m
Period
s
Dir
28/09:00am 12.7 NE 7 9 1029.2 - 0.0 - Mostly cloudy - - - - -
28/08:30am 12.1 NE 5 6 1028.9 - 0.0 - Cloudy - - - - -
28/08:00am 11.5 NE 5 7 1029.0 - 0.0 - Cloudy - - - - -
28/07:30am 11.1 NE 6 7 1028.5 - 0.0 - Cloudy - - - - -
28/07:00am 11.0 NE 6 7 1028.5 - 0.0 - Cloudy - - - - -
28/06:30am 11.2 NE 7 8 1028.1 - 0.0 - Cloudy - - - - -
28/06:00am 11.1 NE 7 8 1028.2 - 0.0 - Cloudy - - - - -
28/05:30am 11.1 NE 7 8 1027.8 - 0.0 - Cloudy - - - - -
28/05:00am 11.1 NE 6 7 1028.1 - 0.0 - Cloudy - - - - -
28/04:30am 11.1 NE 7 9 1027.8 - 0.0 - Cloudy - - - - -
28/04:00am 11.0 NE 5 6 1028.1 - 0.0 - Cloudy - - - - -
28/03:30am 11.0 NE 6 6 1027.9 - 0.0 - Cloudy - - - - -
28/03:00am 11.1 NE 6 7 1028.1 - 0.0 - Cloudy - - - - -
28/02:30am 11.2 NE 7 10 1028.0 - 0.0 - Cloudy - - - - -
28/02:00am 11.0 NE 6 8 1028.3 - 0.0 - Cloudy - - - - -
28/01:30am 11.0 NE 7 9 1028.2 - 0.0 - Cloudy - - - - -
28/01:00am 10.5 NE 8 10 1028.5 - 0.0 - Cloudy - - - - -
28/12:30am 10.9 NE 5 7 1028.7 - 0.0 - Partly cloudy - - - - -
28/12:00am 10.3 NE 8 9 1028.6 - 0.0 - Mostly cloudy - - - - -
 
Date/Time
EST
Temp

°C
Wind Pressure Rain
since 9am
mm
Weather Cloud Vis
km
Sea
Height
m
Swell
Dir
 
Speed
knots
Gust
knots
hPa Trend Height
m
Period
s
Dir
27/11:30pm 10.8 NE 8 11 1028.4 - 0.0 - - - - - - -
27/11:00pm 10.5 NE 7 8 1028.7 - 0.0 - Partly cloudy - - - - -
27/10:30pm 11.4 NE 5 7 1028.6 - 0.0 - Cloudy - - - - -
27/10:00pm 11.4 NE 6 9 1028.8 - 0.0 - Partly cloudy - - - - -
27/09:30pm 11.5 NNE 7 9 1028.6 - 0.0 - Cloudy - - - - -
27/09:00pm 11.5 NNE 7 7 1028.9 - 0.0 - Cloudy - - - - -
27/08:30pm 11.3 NNE 8 9 1028.5 - 0.0 - Partly cloudy - - - - -
27/08:00pm 11.8 N 9 11 1028.6 - 0.0 - Cloudy - - - - -
27/07:30pm 11.7 NNE 9 11 1028.2 - 0.0 - Cloudy - - - - -
27/07:00pm 11.6 NNE 8 9 1028.4 - 0.0 - Partly cloudy - - - - -
27/06:30pm 11.7 NE 11 14 1027.7 - 0.0 - Partly cloudy - - - - -
27/06:00pm 12.1 NE 11 14 1027.9 - 0.0 - Cloudy - - - - -
27/05:30pm 12.3 NE 14 17 1027.2 - 0.0 - Cloudy - - - - -
27/05:00pm 12.3 NE 13 17 1027.1 - 0.0 - Cloudy - - - - -
27/04:30pm 12.9 ENE 15 19 1026.6 - 0.0 - Cloudy - - - - -
27/04:14pm 12.8 ENE 16 20 1026.6 - 0.0 - Cloudy - - - - -
27/04:00pm 12.8 NE 11 14 1027.1 - 0.0 - Cloudy - - - - -
27/03:33pm 13.2 NE 10 13 1027.2 - 0.0 - Partly cloudy - - - - -
27/03:30pm 13.1 NE 11 14 1027.1 - 0.0 - Partly cloudy - - - - -
27/03:00pm 13.4 ENE 14 17 1026.9 - 0.0 - Mostly cloudy - - - - -
27/02:30pm 13.4 ENE 11 13 1027.3 - 0.0 - Partly cloudy - - - - -
27/02:00pm 13.4 ENE 13 15 1027.5 - 0.0 - Partly cloudy - - - - -
27/01:35pm 13.6 ENE 15 18 1027.3 - 0.0 - Partly cloudy - - - - -
27/01:30pm 13.6 ENE 16 20 1027.3 - 0.0 - Partly cloudy - - - - -
27/01:00pm 14.2 ENE 21 25 1026.8 - 0.0 - Partly cloudy - - - - -
27/12:30pm 13.7 ENE 19 23 1027.4 - 0.0 - Partly cloudy - - - - -
27/12:00pm 14.2 ENE 19 24 1028.0 - 0.0 - Cloudy - - - - -
27/11:30am 13.6 ENE 20 24 1027.7 - 0.0 - Partly cloudy - - - - -
27/11:00am 13.6 ENE 20 24 1028.1 - 0.0 - Cloudy - - - - -
27/10:30am 13.1 ENE 20 23 1028.0 - 0.0 - Cloudy - - - - -
27/10:00am 13.2 ENE 21 26 1027.9 - 0.0 - Partly cloudy - - - - -
27/09:55am 13.2 ENE 21 25 1027.7 - 0.0 - Partly cloudy - - - - -
27/09:36am 12.8 ENE 21 26 1027.9 - 0.0 - Partly cloudy - - - - -
27/09:30am 12.5 ENE 19 26 1027.9 - 0.0 - Partly cloudy - - - - -
27/09:00am 12.4 ENE 18 22 1028.4 - 0.6 - Cloudy - - - - -
27/08:30am 12.2 ENE 18 23 1028.0 - 0.6 - Partly cloudy - - - - -
27/08:00am 11.9 E 17 21 1027.9 - 0.6 - Partly cloudy - - - - -
27/07:30am 11.4 E 17 21 1027.2 - 0.6 - - - - - - -
27/07:00am 11.2 ENE 18 23 1027.0 - 0.6 - - - - - - -
27/06:30am 11.2 E 18 20 1026.8 - 0.6 - Partly cloudy - - - - -
27/06:00am 11.2 E 17 21 1026.7 - 0.4 - Mostly clear - - - - -
27/05:30am 11.2 ENE 15 19 1026.9 - 0.4 - Partly cloudy - - - - -
27/05:00am 11.4 ENE 16 20 1027.0 - 0.4 - - - - - - -
27/04:30am 11.5 ENE 17 19 1026.8 - 0.4 - - - - - - -
27/04:00am 11.5 ENE 16 19 1026.7 - 0.4 - Partly cloudy - - - - -
27/03:30am 11.5 ENE 16 19 1026.8 - 0.2 - - - - - - -
27/03:17am 11.5 ENE 15 18 1027.0 - 0.2 - Partly cloudy - - - - -
27/03:00am 11.5 ENE 14 17 1027.5 - 0.2 - Mostly cloudy - - - - -
27/02:30am 11.6 ENE 15 18 1027.3 - 0.2 - Partly cloudy - - - - -
27/02:13am 11.6 ENE 16 19 1027.4 - 0.2 - Partly cloudy - - - - -
27/02:00am 11.5 ENE 16 19 1027.7 - 0.2 - Partly cloudy - - - - -
27/01:30am 11.7 ENE 17 19 1027.6 - 0.2 - - - - - - -
27/01:00am 11.8 ENE 17 21 1027.9 - 0.0 - - - - - - -
27/12:30am 11.7 ENE 16 19 1027.7 - 0.0 - - - - - - -
27/12:00am 11.7 ENE 17 21 1028.0 - 0.0 - - - - - - -
 
Date/Time
EST
Temp

°C
Wind Pressure Rain
since 9am
mm
Weather Cloud Vis
km
Sea
Height
m
Swell
Dir
 
Speed
knots
Gust
knots
hPa Trend Height
m
Period
s
Dir
26/11:30pm 11.7 ENE 17 20 1027.9 - 0.0 - - - - - - -
26/11:00pm 11.7 ENE 16 20 1028.0 - 0.0 - - - - - - -
26/10:30pm 11.7 ENE 18 22 1027.7 - 0.0 - Partly cloudy - - - - -
26/10:03pm 11.7 ENE 18 22 1027.7 - 0.0 - Partly cloudy - - - - -
26/10:00pm 11.5 ENE 18 22 1028.0 - 0.0 - Partly cloudy - - - - -
26/09:30pm 11.6 ENE 15 17 1028.1 - 0.0 - Cloudy - - - - -
26/09:00pm 11.7 ENE 14 17 1028.6 - 0.0 - Cloudy - - - - -
26/08:30pm 11.9 ENE 14 17 1028.5 - 0.0 - Cloudy - - - - -
26/08:00pm 12.0 ENE 14 19 1028.6 - 0.0 - Cloudy - - - - -
26/07:30pm 12.1 ENE 15 19 1028.1 - 0.0 - Cloudy - - - - -
26/07:00pm 11.8 ENE 17 21 1028.2 - 0.0 - Cloudy - - - - -
26/06:30pm 11.9 ENE 18 21 1027.9 - 0.0 - Cloudy - - - - -
26/06:00pm 12.1 ENE 16 19 1028.1 - 0.0 - Cloudy - - - - -
26/05:30pm 12.3 ENE 17 21 1028.0 - 0.0 - Cloudy - - - - -
26/05:00pm 12.7 E 14 17 1028.1 - 0.0 - Cloudy - - - - -
26/04:30pm 12.5 ENE 15 21 1027.7 - 0.0 - Cloudy - - - - -
26/04:00pm 12.5 ENE 17 23 1027.9 - 0.0 - Cloudy - - - - -
26/03:30pm 12.8 ENE 19 23 1027.8 - 0.0 - Partly cloudy - - - - -
26/03:00pm 13.1 ENE 17 22 1028.1 - 0.0 - Cloudy - - - - -
26/02:30pm 13.4 ENE 18 22 1028.3 - 0.0 - Cloudy - - - - -
26/02:00pm 13.7 ENE 17 21 1028.6 - 0.0 - Partly cloudy - - - - -
26/01:30pm 13.1 ENE 14 17 1028.7 - 0.0 - Partly cloudy - - - - -
26/01:00pm 13.1 E 15 19 1029.3 - 0.0 - Partly cloudy - - - - -
26/12:30pm 13.0 E 15 18 1029.8 - 0.0 - Partly cloudy - - - - -
26/12:00pm 13.4 E 15 19 1030.1 - 0.0 - Cloudy - - - - -
26/11:30am 13.4 E 16 20 1030.0 - 0.0 - Partly cloudy - - - - -
26/11:00am 12.9 E 15 20 1030.3 - 0.0 - Cloudy - - - - -
26/10:30am 12.4 E 13 16 1030.5 - 0.0 - Cloudy - - - - -
26/10:00am 12.1 E 11 14 1030.8 - 0.0 - Cloudy - - - - -
26/09:30am 12.2 E 11 13 1030.8 - 0.0 - Partly cloudy - - - - -
26/09:00am 11.9 E 8 10 1030.9 - 0.2 - Cloudy - - - - -
26/08:30am 11.7 E 8 9 1030.8 - 0.2 - Partly cloudy - - - - -
26/08:00am 11.6 E 9 11 1030.7 - 0.2 - Cloudy - - - - -
26/07:30am 10.8 E 9 11 1030.2 - 0.2 - Cloudy - - - - -
26/07:00am 10.4 ESE 9 10 1030.0 - 0.2 - Cloudy - - - - -
26/06:30am 10.4 ESE 9 11 1029.6 - 0.2 - Partly cloudy - - - - -
26/06:00am 10.4 SE 9 10 1029.7 - 0.2 - Cloudy - - - - -
26/05:30am 10.8 SE 8 9 1029.3 - 0.2 - Partly cloudy - - - - -
26/05:15am 10.6 SE 8 9 1029.4 - 0.2 - Partly cloudy - - - - -
26/05:00am 10.6 SE 9 10 1029.7 - 0.2 - Cloudy - - - - -
26/04:55am 10.6 SE 9 9 1029.5 - 0.2 - Cloudy - - - - -
26/04:30am 10.3 SE 10 11 1029.4 - 0.2 - Partly cloudy - - - - -
26/04:24am 10.4 SE 11 12 1029.4 - 0.2 - Partly cloudy - - - - -
26/04:07am 9.7 SE 11 12 1029.5 - 0.2 - Partly cloudy - - - - -
26/04:00am 9.5 SE 11 12 1029.7 - 0.2 - Partly cloudy - - - - -
26/03:37am 9.4 SE 11 11 1029.4 - 0.2 - Partly cloudy - - - - -
26/03:30am 9.3 SE 11 13 1029.4 - 0.2 - Partly cloudy - - - - -
26/03:00am 9.0 SE 11 12 1029.6 - 0.2 - - - - - - -
26/02:30am 9.2 SE 12 13 1029.3 - 0.2 - - - - - - -
26/02:00am 8.9 SSE 11 12 1029.8 - 0.2 - - - - - - -
26/01:30am 9.5 SSE 11 12 1029.8 - 0.2 - - - - - - -
26/01:00am 10.0 SSE 11 12 1030.1 - 0.2 - - - - - - -
26/12:30am 10.6 SSE 10 10 1030.1 - 0.2 - - - - - - -
26/12:00am 10.2 SSE 8 9 1030.4 - 0.2 - - - - - - -
 
Date/Time
EST
Temp

°C
Wind Pressure Rain
since 9am
mm
Weather Cloud Vis
km
Sea
Height
m
Swell
Dir
 
Speed
knots
Gust
knots
hPa Trend Height
m
Period
s
Dir
25/11:30pm 10.0 SSE 8 9 1030.2 - 0.2 - - - - - - -
25/11:00pm 10.2 SSE 9 9 1030.4 - 0.2 - - - - - - -
25/10:30pm 10.5 SSE 9 9 1030.4 - 0.2 - Partly cloudy - - - - -
25/10:00pm 10.5 SSE 8 10 1030.5 - 0.2 - Partly cloudy - - - - -
25/09:30pm 10.2 SSE 8 10 1030.3 - 0.2 - - - - - - -
25/09:00pm 10.9 SSE 6 7 1030.4 - 0.2 - - - - - - -
25/08:30pm 11.3 SSE 4 5 1030.1 - 0.2 - Partly cloudy - - - - -
25/08:00pm 11.8 SSE 4 5 1030.1 - 0.2 - - - - - - -
25/07:30pm 11.5 SSE 5 6 1029.9 - 0.2 - Partly cloudy - - - - -
25/07:00pm 12.0 SSE 4 5 1030.1 - 0.2 - Cloudy - - - - -
25/06:30pm 12.0 SSE 8 10 1029.9 - 0.2 - Partly cloudy - - - - -
25/06:00pm 12.1 SSE 6 7 1029.8 - 0.2 - Partly cloudy - - - - -
25/05:30pm 12.4 SSE 4 7 1029.4 - 0.2 - - - - - - -
25/05:00pm 13.2 SSE 3 5 1029.3 - 0.2 - - - - - - -
25/04:30pm 13.2 SSE 5 7 1029.1 - 0.2 - - - - - - -
25/04:00pm 13.7 SSE 5 7 1029.0 - 0.2 - - - - - - -
25/03:30pm 13.1 SSE 6 8 1028.6 - 0.2 - - - - - - -
25/03:00pm 13.3 SSE 7 9 1028.8 - 0.2 - - - - - - -
25/02:30pm 13.3 SSE 7 11 1028.6 - 0.2 - - - - - - -
25/02:00pm 12.9 SE 9 12 1028.8 - 0.2 - - - - - - -
25/01:30pm 13.7 SE 5 7 1028.7 - 0.2 - - - - - - -
25/01:00pm 13.4 SE 6 8 1029.1 - 0.2 - - - - - - -
25/12:30pm 12.9 SE 7 8 1029.1 - 0.2 - Partly cloudy - - - - -
25/12:00pm 12.7 SE 6 8 1029.6 - 0.2 - - - - - - -
25/11:30am 12.8 SE 7 8 1029.8 - 0.2 - - - - - - -
25/11:00am 12.2 SE 5 8 1030.0 - 0.2 - - - - - - -
25/10:30am 12.0 SE 6 9 1029.9 - 0.2 - - - - - - -
25/10:00am 12.2 SE 4 7 1030.0 - 0.2 - - - - - - -
25/09:30am 12.3 SE 6 8 1030.0 - 0.2 - - - - - - -

Other Formats:

Comma delimited format used in spreadsheet applications
http://www.bom.gov.au/fwo/IDT60701/IDT60701.95954.axf

JavaScript Object Notation format (JSON) in row-major order
http://www.bom.gov.au/fwo/IDT60701/IDT60701.95954.json